Terminal Aerodrome Forecast
Issued by NWS Cleveland, OH

Home | Current Version | Previous Version | Graphics & Text | Print | Product List | Glossary On
Versions: 1 2 3 4 5 6 7 8 9 10 11 12 13
000
FTUS41 KCLE 250520
TAFCAK
TAF
KCAK 250520Z 2506/2606 06006KT P6SM SKC
     FM251300 09006KT P6SM SKC
     FM260500 09005KT P6SM BKN250=

USA.gov is the U.S. government's official web portal to all federal, state and local government web resources and services.